Westcliffe, CO

9:26 AM MDT on October 01, 2014 (GMT -0600)
Salida | Change Station
CLOSE
Current Station
Airport
Location: Salida,
Elevation: 7523 ft
Nearby Weather Stations

Elev 7523 ft 38.54 °N, 106.05 °W | Updated 11 minutes ago

Partly Cloudy
Partly Cloudy
45 °F
Feels Like 45 °F
N
0
Wind Variable Wind from North

Today
High -- | Low -- °F
--% Chance of Precip.
Yesterday
High -- | Low -- °F
Precip. -- in
6:57 AM 6:44 PM
Waxing Crescent, 48% visible
Pressure 30.09 in
Visibility 10.0 miles
Clouds Mostly Cloudy 9500 ft
Dew Point 33 °F
Humidity 63%
Rainfall 0.00 in
Snow Depth 0 in , 0 in , 188 in
UV 1 out of 12
Pollen 4.40 out of 12
Air Quality Not available.
Flu Activity Not available.
METAR KANK 011515Z AUTO 00000KT 10SM BKN095 07/01 A3009 RMK AO1 T00720005

More Conditions Fewer Conditions

Pressure 30.09 in
Visibility 10.0 miles
Clouds Mostly Cloudy 9500 ft
Dew Point 33 °F
Humidity 63%
Rainfall 0.00 in
Snow Depth 0 in , 0 in , 188 in
UV 1 out of 12
Pollen 4.40 out of 12
Air Quality Not available.
Flu Activity Not available.
METAR KANK 011515Z AUTO 00000KT 10SM BKN095 07/01 A3009 RMK AO1 T00720005

More Conditions Fewer Conditions

10-Day Weather Forecast

Almanac

Astronomy

Oct. 01, 2014 Rise Set
Actual Time 6:57 AM MDT 6:44 PM MDT
Civil Twilight 6:31 AM MDT 7:10 PM MDT
Nautical Twilight 6:00 AM MDT 7:41 PM MDT
Astronomical Twilight 5:29 AM MDT 8:11 PM MDT
Moon 1:56 PM MDT No Moon Set
Length of Visible Light 12h 39m
Length of Day
11h 47m
Tomorrow will be 2m 26s shorter.
Waxing Crescent, 48% of the Moon is Illuminated
Today
Waxing Crescent
Oct 1
First Quarter
Oct 8
Full
Oct 15
Last Quarter
Oct 23
New

Today's Extremes

State Highs State Lows

Community

WunderPhotos

Upload Photos

1,757,966 photos uploaded!

Nearby

Snow Depth

Station Depth Elevation
Upper Rio Grande 0 in 9400 ft
Kiln 0 in 9600 ft
Independence Pass 188 in 10600 ft
Columbine Pass 1 in 9400 ft
Trinchera 0 in 10860 ft

Earthquake Activity

City Distance Mag. Time & Date
Trinidad, Colorado 78 miles 2.9 3:55 AM MDT
2014-09-30
Minimum magnitude displayed is 2.5.

Coastal Water Temperatures

Place Temperature
No Stations Reporting

Nearby Weather Stations